createdAt,value
2023-01-06T00:03:44.121Z,9.15
2023-01-06T02:57:16.758Z,6.75
2023-01-06T03:03:07.173Z,5.55
2023-01-06T03:14:38.534Z,6.65
2023-01-06T03:20:07.892Z,6.15
2023-01-06T03:25:24.004Z,6.80
2023-01-06T03:30:38.733Z,6.38
2023-01-06T03:41:19.235Z,4.60
2023-01-06T03:52:16.233Z,6.07
2023-01-06T03:57:54.652Z,4.03
2023-01-06T04:03:19.008Z,5.97
2023-01-06T04:14:01.825Z,5.93
2023-01-06T04:19:25.311Z,7.13
2023-01-06T04:24:33.957Z,10.27
2023-01-06T04:29:50.571Z,6.15
2023-01-06T04:35:02.105Z,4.57
2023-01-06T04:40:19.510Z,7.00
2023-01-06T04:45:26.580Z,5.00
2023-01-06T04:50:41.173Z,8.15
2023-01-06T04:56:12.813Z,6.05
2023-01-06T05:01:20.611Z,5.43
2023-01-06T05:06:54.102Z,4.72
2023-01-06T05:12:15.014Z,6.53
2023-01-06T05:31:32.559Z,7.68
2023-01-06T05:36:17.354Z,6.30
2023-01-06T05:47:11.175Z,6.03
2023-01-06T06:10:49.644Z,9.32
2023-01-06T06:16:30.803Z,8.30
2023-01-06T06:22:46.523Z,8.65
2023-01-06T06:28:52.332Z,10.70
2023-01-06T06:34:22.773Z,8.93
2023-01-06T06:39:45.036Z,7.68
2023-01-06T06:45:48.713Z,11.07
2023-01-06T06:51:23.300Z,9.05
2023-01-06T06:56:37.198Z,8.57
2023-01-06T07:01:53.027Z,11.48
2023-01-06T07:12:17.327Z,13.23
2023-01-06T07:17:29.356Z,12.15
2023-01-06T07:23:10.103Z,11.52
2023-01-06T07:28:29.045Z,13.40
2023-01-06T07:33:34.623Z,12.70
2023-01-06T07:38:39.866Z,13.32
2023-01-06T07:43:48.042Z,15.00
2023-01-06T07:48:53.232Z,12.00
2023-01-06T07:54:05.979Z,10.55
2023-01-06T07:59:13.934Z,16.17
2023-01-06T08:04:20.892Z,14.38
2023-01-06T08:09:25.938Z,14.13
2023-01-06T08:14:33.729Z,11.02
2023-01-06T08:19:39.046Z,10.07
2023-01-06T08:24:44.682Z,11.70
2023-01-06T08:29:55.024Z,8.77
2023-01-06T08:35:00.395Z,8.05
2023-01-06T08:40:05.904Z,10.18
2023-01-06T08:45:14.814Z,9.80
2023-01-06T08:50:20.575Z,10.90
2023-01-06T08:55:25.848Z,10.18
2023-01-06T09:00:34.583Z,10.63
2023-01-06T09:05:40.466Z,17.42
2023-01-06T09:10:46.176Z,12.57
2023-01-06T09:15:55.577Z,11.77
2023-01-06T09:21:01.385Z,9.10
2023-01-06T09:26:07.144Z,9.18
2023-01-06T09:31:15.793Z,9.20
2023-01-06T09:36:21.708Z,15.52
2023-01-06T09:41:47.535Z,8.93
2023-01-06T09:46:59.180Z,11.18
2023-01-06T09:52:07.672Z,8.15
2023-01-06T09:57:35.209Z,10.93
2023-01-06T10:14:25.783Z,9.13
2023-01-06T10:19:54.672Z,9.32
2023-01-06T10:25:28.094Z,5.60
2023-01-06T10:31:00.544Z,5.65
2023-01-06T10:36:45.096Z,6.63
2023-01-06T10:42:26.889Z,12.35
2023-01-06T10:48:00.577Z,7.53
2023-01-06T10:53:12.033Z,8.98
2023-01-06T10:58:23.522Z,7.40
2023-01-06T11:03:48.197Z,11.32
2023-01-06T11:08:55.983Z,6.40
2023-01-06T11:14:04.436Z,7.63
2023-01-06T11:19:29.955Z,9.77
2023-01-06T11:24:36.235Z,6.93
2023-01-06T11:29:41.805Z,8.43
2023-01-06T11:35:04.052Z,6.47
2023-01-06T11:40:21.971Z,6.18
2023-01-06T11:45:38.072Z,3.97
2023-01-06T11:50:54.519Z,7.68
2023-01-06T11:56:07.222Z,7.93
2023-01-06T12:01:37.857Z,6.93
2023-01-06T12:06:53.355Z,7.38
2023-01-06T12:12:00.539Z,7.13
2023-01-06T12:17:15.065Z,11.32
2023-01-06T12:22:28.490Z,7.25
2023-01-06T12:27:37.095Z,11.98
2023-01-06T12:32:46.320Z,12.38
2023-01-06T12:38:01.059Z,8.32
2023-01-06T12:43:20.255Z,8.38
2023-01-06T12:48:31.518Z,10.43
2023-01-06T12:53:43.600Z,7.13
2023-01-06T12:58:54.510Z,7.93
2023-01-06T13:04:19.732Z,12.48
2023-01-06T13:09:38.693Z,7.95
2023-01-06T13:14:55.168Z,10.15
2023-01-06T13:20:04.038Z,14.32
2023-01-06T13:25:33.617Z,16.92
2023-01-06T13:31:03.619Z,13.13
2023-01-06T13:36:28.529Z,7.35
2023-01-06T13:41:48.209Z,11.18
2023-01-06T13:47:02.491Z,12.25
2023-01-06T13:52:21.693Z,15.65
2023-01-06T13:57:42.584Z,20.70
2023-01-06T14:03:22.969Z,18.98
2023-01-06T14:08:35.333Z,16.33
2023-01-06T14:27:26.458Z,15.73
2023-01-06T14:33:17.519Z,11.75
2023-01-06T14:39:07.999Z,10.45
2023-01-06T14:44:23.368Z,13.57
2023-01-06T14:50:26.338Z,14.48
2023-01-06T15:01:39.355Z,18.05
2023-01-06T15:11:56.330Z,15.25
2023-01-06T15:17:06.450Z,17.88
2023-01-06T15:22:15.514Z,20.23
2023-01-06T15:27:22.753Z,16.10
2023-01-06T15:32:31.572Z,19.52
2023-01-06T15:37:37.731Z,23.10
2023-01-06T15:42:44.939Z,18.80
2023-01-06T15:47:55.575Z,26.17
2023-01-06T15:53:05.001Z,23.85
2023-01-06T15:58:12.580Z,22.90
2023-01-06T16:03:24.648Z,19.67
2023-01-06T16:08:32.058Z,21.38
2023-01-06T16:13:37.951Z,16.25
2023-01-06T16:18:47.219Z,17.83
2023-01-06T16:24:01.417Z,22.02
2023-01-06T16:29:07.388Z,28.23
2023-01-06T16:34:29.772Z,47.17
2023-01-06T16:39:37.557Z,53.95
2023-01-06T16:44:48.009Z,59.95
2023-01-06T16:49:57.886Z,53.50
2023-01-06T16:55:03.755Z,65.13
2023-01-06T17:00:16.176Z,72.65
2023-01-06T17:05:41.677Z,78.30
2023-01-06T17:10:50.779Z,76.43
2023-01-06T17:16:01.994Z,77.57
2023-01-06T17:21:15.845Z,70.65
2023-01-06T17:26:25.286Z,71.35
2023-01-06T17:31:35.213Z,58.90
2023-01-06T17:36:45.244Z,61.05
2023-01-06T17:41:51.116Z,63.25
2023-01-06T17:46:57.691Z,89.05
2023-01-06T17:52:23.994Z,100.85
2023-01-06T17:57:30.990Z,88.97
2023-01-06T18:02:43.995Z,127.03
2023-01-06T18:07:52.520Z,103.78
2023-01-06T18:12:59.980Z,79.25
2023-01-06T18:18:06.559Z,85.13
2023-01-06T18:23:20.481Z,92.38
2023-01-06T18:28:26.510Z,116.50
2023-01-06T18:33:33.100Z,115.47
2023-01-06T18:38:41.508Z,96.00
2023-01-06T18:43:47.276Z,145.05
2023-01-06T18:48:53.758Z,126.63
2023-01-06T18:54:03.226Z,108.63
2023-01-06T18:59:15.248Z,110.90
2023-01-06T19:04:23.778Z,136.40
2023-01-06T19:09:37.585Z,120.53
2023-01-06T19:14:47.097Z,150.20
2023-01-06T19:19:54.181Z,175.68
2023-01-06T19:25:04.716Z,157.55
2023-01-06T19:30:46.104Z,149.45
2023-01-06T19:35:52.069Z,168.02
2023-01-06T19:41:01.860Z,134.45
2023-01-06T19:46:10.527Z,147.68
2023-01-06T19:51:36.669Z,192.23
2023-01-06T19:56:46.543Z,209.00
2023-01-06T20:01:55.842Z,165.25
2023-01-06T20:07:03.515Z,163.65
2023-01-06T20:12:14.949Z,195.05
2023-01-06T20:17:21.559Z,203.07
2023-01-06T20:22:27.271Z,158.48
2023-01-06T20:27:37.577Z,126.20
2023-01-06T20:32:43.423Z,111.65
2023-01-06T20:37:50.491Z,122.35
2023-01-06T20:43:00.771Z,103.50
2023-01-06T20:48:07.551Z,95.28
2023-01-06T20:53:14.865Z,117.70
2023-01-06T20:58:23.438Z,120.43
2023-01-06T21:03:30.157Z,97.18
2023-01-06T21:08:40.240Z,75.05
2023-01-06T21:13:49.317Z,60.85
2023-01-06T21:18:55.062Z,50.22
2023-01-06T21:24:01.377Z,48.55
2023-01-06T21:29:10.651Z,43.33
2023-01-06T21:34:16.387Z,45.88
2023-01-06T21:39:22.266Z,68.40
2023-01-06T21:44:30.748Z,57.70
2023-01-06T21:49:36.542Z,51.53
2023-01-06T21:54:42.307Z,51.53
2023-01-06T21:59:50.712Z,46.33
2023-01-06T22:10:03.402Z,48.42
2023-01-06T22:15:15.782Z,37.53
2023-01-06T22:20:22.025Z,41.38
2023-01-06T22:25:35.269Z,48.10
2023-01-06T22:30:43.711Z,54.70
2023-01-06T22:35:49.497Z,56.58
2023-01-06T22:40:55.320Z,55.15
2023-01-06T22:46:03.685Z,69.63
2023-01-06T22:56:16.564Z,102.18
2023-01-06T23:01:24.934Z,82.75
2023-01-06T23:06:30.783Z,92.97
2023-01-06T23:11:42.363Z,76.47
2023-01-06T23:16:52.237Z,84.40
2023-01-06T23:21:57.326Z,90.90
2023-01-06T23:27:03.988Z,86.38
2023-01-06T23:32:11.728Z,84.88
2023-01-06T23:37:16.761Z,86.32
2023-01-06T23:42:21.788Z,68.30
2023-01-06T23:47:32.335Z,65.60
2023-01-06T23:52:37.359Z,56.22
2023-01-06T23:57:42.418Z,52.58
